Time;durP1;ratioP1;P1;durP2;ratioP2;P2;SDS_P1;SDS_P2;PMS_P1;PMS_P2;Temp;Humidity;BMP_temperature;BMP_pressure;BME280_temperature;BME280_humidity;BME280_pressure;Samples;Min_cycle;Max_cycle;Signal;HPM_P1;HPM_P2
2022/11/15 00:00:37;;;;;;;;;;;;;;;7.61;82.64;101050.50;4880391;29;4495;-80
2022/11/15 00:03:03;;;;;;;;;;;;;;;7.59;82.61;101053.41;4874191;29;4627;-79
2022/11/15 00:05:30;;;;;;;;;;;;;;;7.58;82.55;101043.66;4880091;29;4792;-80
2022/11/15 00:07:57;;;;;;;;;;;;;;;7.57;82.63;101038.50;4878141;29;5136;-80
2022/11/15 00:10:23;;;;;;;;;;;;;;;7.57;82.42;101039.34;4865616;29;4698;-80
2022/11/15 00:12:50;;;;;;;;;;;;;;;7.57;83.02;101039.34;4868963;29;4713;-80
2022/11/15 00:15:16;;;;;;;;;;;;;;;7.55;83.04;101043.22;4878017;29;4683;-80
2022/11/15 00:17:43;;;;;;;;;;;;;;;7.55;82.76;101036.00;4876771;29;4796;-80
2022/11/15 00:20:09;;;;;;;;;;;;;;;7.52;82.81;101031.03;4862890;29;4677;-80
2022/11/15 00:22:36;;;;;;;;;;;;;;;7.52;82.97;101033.69;4883298;29;4584;-80
2022/11/15 00:25:03;;;;;;;;;;;;;;;7.51;82.86;101032.06;4881588;29;4644;-80
2022/11/15 00:27:29;;;;;;;;;;;;;;;7.51;82.62;101018.66;4877445;29;4702;-80
2022/11/15 00:29:56;;;;;;;;;;;;;;;7.60;82.79;101022.06;4880656;29;5199;-80
2022/11/15 00:32:22;;;;;;;;;;;;;;;7.51;82.63;101022.16;4879771;29;4732;-80
2022/11/15 00:34:49;;;;;;;;;;;;;;;7.56;82.85;101016.25;4881358;29;5119;-80
2022/11/15 00:37:15;;;;;;;;;;;;;;;7.54;82.47;101017.44;4880621;29;4694;-79
2022/11/15 00:39:42;;;;;;;;;;;;;;;7.58;82.60;101013.34;4879961;29;4507;-79
2022/11/15 00:42:08;;;;;;;;;;;;;;;7.51;82.83;100999.88;4880152;29;4631;-79
2022/11/15 00:44:35;;;;;;;;;;;;;;;7.48;82.83;101000.28;4882603;29;4664;-80
2022/11/15 00:47:01;;;;;;;;;;;;;;;7.53;82.97;101007.72;4877601;29;5019;-79
2022/11/15 00:49:28;;;;;;;;;;;;;;;7.48;83.08;100994.91;4878268;29;4558;-79
2022/11/15 00:51:55;;;;;;;;;;;;;;;7.53;82.90;100997.00;4884393;29;4542;-80
2022/11/15 00:54:21;;;;;;;;;;;;;;;7.53;82.51;100995.19;4879402;29;4687;-79
2022/11/15 00:56:48;;;;;;;;;;;;;;;7.50;82.59;100993.69;4865816;29;4698;-80
2022/11/15 00:59:14;;;;;;;;;;;;;;;7.50;82.56;100992.88;4880111;29;4775;-80
2022/11/15 01:01:41;;;;;;;;;;;;;;;7.48;83.05;100984.19;4880834;29;4518;-80
2022/11/15 01:04:07;;;;;;;;;;;;;;;7.47;82.88;100993.22;4880358;29;4625;-80
2022/11/15 01:06:34;;;;;;;;;;;;;;;7.50;82.66;100985.66;4860320;29;4988;-80
2022/11/15 01:09:00;;;;;;;;;;;;;;;7.49;82.75;100983.97;4880688;29;4538;-79
2022/11/15 01:11:27;;;;;;;;;;;;;;;7.51;82.81;100981.94;4879974;29;5994;-79
2022/11/15 01:13:53;;;;;;;;;;;;;;;7.57;82.36;100974.19;4877958;29;4694;-79
2022/11/15 01:16:20;;;;;;;;;;;;;;;7.49;82.71;100972.44;4871094;29;4669;-79
2022/11/15 01:18:46;;;;;;;;;;;;;;;7.49;82.81;100972.44;4882570;29;4617;-80
2022/11/15 01:21:13;;;;;;;;;;;;;;;7.48;83.00;100974.28;4877169;29;4678;-80
2022/11/15 01:23:39;;;;;;;;;;;;;;;7.46;82.91;100967.44;4881925;29;4975;-80
2022/11/15 01:26:06;;;;;;;;;;;;;;;7.51;82.46;100957.81;4880119;29;5059;-80
2022/11/15 01:28:33;;;;;;;;;;;;;;;7.46;82.68;100962.91;4879895;29;5079;-80
2022/11/15 01:30:59;;;;;;;;;;;;;;;7.44;83.05;100964.97;4879004;29;4505;-80
2022/11/15 01:33:26;;;;;;;;;;;;;;;7.51;82.65;100967.72;4881881;29;4506;-80
2022/11/15 01:35:52;;;;;;;;;;;;;;;7.44;82.77;100959.63;4880979;29;4529;-80
2022/11/15 01:38:19;;;;;;;;;;;;;;;7.45;83.03;100961.25;4882639;29;4582;-79
2022/11/15 01:40:45;;;;;;;;;;;;;;;7.48;82.66;100960.06;4879839;29;4687;-80
2022/11/15 01:43:12;;;;;;;;;;;;;;;7.51;82.55;100973.91;4878305;29;5297;-80
2022/11/15 01:45:38;;;;;;;;;;;;;;;7.53;82.64;100972.88;4877259;29;4700;-79
2022/11/15 01:48:05;;;;;;;;;;;;;;;7.48;82.71;100970.78;4883467;29;4499;-80
2022/11/15 01:50:31;;;;;;;;;;;;;;;7.49;82.39;100962.53;4879484;29;5140;-80
2022/11/15 01:52:58;;;;;;;;;;;;;;;7.48;82.86;100962.75;4884610;29;4574;-80
2022/11/15 01:55:25;;;;;;;;;;;;;;;7.43;82.63;100971.34;4879694;29;5320;-80
2022/11/15 01:57:51;;;;;;;;;;;;;;;7.45;82.80;100966.63;4881900;29;4726;-80
2022/11/15 02:00:18;;;;;;;;;;;;;;;7.48;82.84;100976.97;4876784;29;5016;-79
2022/11/15 02:02:44;;;;;;;;;;;;;;;7.42;82.71;100976.91;4881900;29;4618;-79
2022/11/15 02:05:11;;;;;;;;;;;;;;;7.44;83.06;100985.56;4885679;29;4557;-80
2022/11/15 02:07:38;;;;;;;;;;;;;;;7.43;82.86;100974.03;4882076;29;4775;-80
2022/11/15 02:10:04;;;;;;;;;;;;;;;7.42;82.74;100980.41;4878629;29;4651;-80
2022/11/15 02:12:31;;;;;;;;;;;;;;;7.44;82.93;100980.19;4880200;29;4714;-80
2022/11/15 02:14:57;;;;;;;;;;;;;;;7.42;82.84;100983.09;4879930;29;4650;-79
2022/11/15 02:17:24;;;;;;;;;;;;;;;7.44;82.76;100970.34;4877005;29;5060;-80
2022/11/15 02:19:51;;;;;;;;;;;;;;;7.04;82.68;100920.81;4881228;29;4490;-79
2022/11/15 02:22:18;;;;;;;;;;;;;;;7.37;82.77;100979.31;4881769;29;4650;-79
2022/11/15 02:24:44;;;;;;;;;;;;;;;7.39;83.15;100972.75;4883001;29;4676;-80
2022/11/15 02:27:11;;;;;;;;;;;;;;;7.49;82.33;100973.25;4883879;29;5051;-81
2022/11/15 02:29:37;;;;;;;;;;;;;;;7.51;82.44;100983.81;4880020;29;4641;-80
2022/11/15 02:32:04;;;;;;;;;;;;;;;7.42;82.84;100979.59;4879893;29;4527;-80
2022/11/15 02:34:30;;;;;;;;;;;;;;;7.40;82.60;100974.41;4881166;29;5027;-80
2022/11/15 02:36:57;;;;;;;;;;;;;;;7.37;82.76;100984.66;4864121;29;4950;-80
2022/11/15 02:39:23;;;;;;;;;;;;;;;7.45;82.26;100980.03;4884915;29;4648;-80
2022/11/15 02:41:50;;;;;;;;;;;;;;;7.39;82.62;100982.63;4882450;29;4535;-79
2022/11/15 02:44:15;;;;;;;;;;;;;;;7.35;82.96;100978.66;4878121;29;5253;-80
2022/11/15 02:49:26;;;;;;;;;;;;;;;7.34;82.88;100967.13;4880115;29;4518;-80
2022/11/15 02:51:53;;;;;;;;;;;;;;;7.33;82.90;100968.13;4880067;29;5040;-80
2022/11/15 02:54:20;;;;;;;;;;;;;;;7.35;82.79;100962.56;4869254;29;4759;-80
2022/11/15 02:56:46;;;;;;;;;;;;;;;7.34;82.84;100956.41;4881950;29;4493;-80
2022/11/15 02:59:13;;;;;;;;;;;;;;;7.34;82.91;100951.03;4881670;29;4677;-80
2022/11/15 03:01:40;;;;;;;;;;;;;;;7.32;82.99;100949.56;4879766;29;4613;-79
2022/11/15 03:04:06;;;;;;;;;;;;;;;7.33;83.10;100945.88;4864605;29;5154;-80
2022/11/15 03:06:33;;;;;;;;;;;;;;;7.33;83.02;100948.56;4864177;29;4683;-80
2022/11/15 03:09:00;;;;;;;;;;;;;;;7.34;82.69;100939.50;4877818;29;4542;-80
2022/11/15 03:11:26;;;;;;;;;;;;;;;7.33;83.03;100941.34;4877873;29;4930;-80
2022/11/15 03:13:53;;;;;;;;;;;;;;;7.03;82.97;100897.72;4866567;29;4562;-80
2022/11/15 03:16:19;;;;;;;;;;;;;;;7.33;82.59;100943.19;4874092;29;4654;-80
2022/11/15 03:18:46;;;;;;;;;;;;;;;7.35;82.53;100944.66;4880317;29;4702;-80
2022/11/15 03:21:12;;;;;;;;;;;;;;;7.33;82.91;100946.72;4880403;29;4741;-80
2022/11/15 03:23:39;;;;;;;;;;;;;;;7.32;82.61;100931.63;4869877;29;4584;-80
2022/11/15 03:26:05;;;;;;;;;;;;;;;7.33;82.64;100937.84;4879933;29;5184;-80
2022/11/15 03:28:32;;;;;;;;;;;;;;;7.27;82.73;100926.84;4868838;29;4636;-79
2022/11/15 03:30:59;;;;;;;;;;;;;;;7.33;82.60;100927.94;4877285;29;4634;-80
2022/11/15 03:33:25;;;;;;;;;;;;;;;7.29;83.04;100915.94;4865778;29;4687;-80
2022/11/15 03:35:52;;;;;;;;;;;;;;;7.27;82.75;100909.94;4877637;29;4633;-80
2022/11/15 03:38:18;;;;;;;;;;;;;;;7.26;82.56;100919.00;4869213;29;4531;-81
2022/11/15 03:40:45;;;;;;;;;;;;;;;7.28;83.06;100920.47;4863669;29;5298;-80
2022/11/15 03:43:11;;;;;;;;;;;;;;;7.29;82.78;100915.94;4866048;29;4580;-80
2022/11/15 03:45:38;;;;;;;;;;;;;;;7.30;82.80;100919.47;4873969;29;4557;-80
2022/11/15 03:48:05;;;;;;;;;;;;;;;7.27;82.76;100926.03;4863129;29;4703;-80
2022/11/15 03:50:31;;;;;;;;;;;;;;;7.31;83.00;100921.94;4859375;29;4161;-80
2022/11/15 03:52:58;;;;;;;;;;;;;;;7.30;82.69;100914.09;4864038;29;4515;-80
2022/11/15 03:55:24;;;;;;;;;;;;;;;7.25;82.92;100911.97;4866278;29;4678;-80
2022/11/15 03:57:51;;;;;;;;;;;;;;;7.24;82.83;100913.84;4869547;29;4516;-80
2022/11/15 04:00:17;;;;;;;;;;;;;;;7.26;82.80;100924.34;4885967;29;4723;-80
2022/11/15 04:02:44;;;;;;;;;;;;;;;7.31;82.65;100911.22;4879290;29;4789;-80
2022/11/15 04:05:10;;;;;;;;;;;;;;;7.25;82.96;100920.03;4885367;29;4721;-80
2022/11/15 04:07:37;;;;;;;;;;;;;;;7.24;82.86;100919.19;4867712;29;5111;-80
2022/11/15 04:10:03;;;;;;;;;;;;;;;7.26;82.76;100921.66;4867516;29;4565;-81
2022/11/15 04:12:33;;;;;;;;;;;;;;;7.24;82.76;100918.38;4849927;29;4818;-79
2022/11/15 04:15:09;;;;;;;;;;;;;;;7.26;82.92;100932.38;4862892;29;4553;-81
2022/11/15 04:17:36;;;;;;;;;;;;;;;7.26;82.59;100937.75;4870565;29;5094;-80
2022/11/15 04:25:27;;;;;;;;;;;;;;;7.23;82.66;100935.44;4869921;29;4436;-80
2022/11/15 04:27:54;;;;;;;;;;;;;;;7.21;82.73;100938.31;4860142;29;4933;-80
2022/11/15 04:30:21;;;;;;;;;;;;;;;7.23;82.73;100946.16;4874119;29;4694;-79
2022/11/15 04:32:47;;;;;;;;;;;;;;;7.19;82.87;100940.34;4868085;29;4550;-80
2022/11/15 04:35:14;;;;;;;;;;;;;;;7.21;82.79;100941.00;4856270;29;5268;-80
2022/11/15 04:37:40;;;;;;;;;;;;;;;7.20;82.68;100938.50;4868073;29;4986;-81
2022/11/15 04:40:07;;;;;;;;;;;;;;;7.17;82.74;100941.56;4873973;29;4400;-80
2022/11/15 04:42:33;;;;;;;;;;;;;;;7.17;82.91;100937.03;4872380;29;5031;-80
2022/11/15 04:45:00;;;;;;;;;;;;;;;7.23;82.65;100938.13;4856488;29;4575;-80
2022/11/15 04:47:27;;;;;;;;;;;;;;;7.17;83.18;100938.88;4864414;29;4921;-80
2022/11/15 04:49:53;;;;;;;;;;;;;;;7.20;82.60;100936.66;4872935;29;4509;-80
2022/11/15 04:52:20;;;;;;;;;;;;;;;7.16;83.08;100932.69;4882121;29;4629;-80
2022/11/15 04:54:47;;;;;;;;;;;;;;;7.17;82.61;100928.16;4885476;29;5131;-81
2022/11/15 04:57:13;;;;;;;;;;;;;;;7.22;82.49;100936.47;4876053;29;4562;-81
2022/11/15 04:59:40;;;;;;;;;;;;;;;7.21;82.45;100941.00;4880986;29;4804;-80
2022/11/15 05:02:06;;;;;;;;;;;;;;;7.18;82.55;100935.19;4868823;29;4580;-79
2022/11/15 05:04:32;;;;;;;;;;;;;;;7.14;82.74;100942.75;4870036;29;4542;-79
2022/11/15 05:06:58;;;;;;;;;;;;;;;7.21;82.46;100937.50;4852379;29;4658;-81
2022/11/15 05:09:25;;;;;;;;;;;;;;;7.15;82.63;100943.63;4865133;29;5098;-80
2022/11/15 05:11:51;;;;;;;;;;;;;;;7.13;82.83;100945.63;4870782;29;4732;-79
2022/11/15 05:14:18;;;;;;;;;;;;;;;7.12;82.94;100946.63;4868498;29;4683;-80
2022/11/15 05:16:44;;;;;;;;;;;;;;;7.13;82.72;100948.31;4856090;29;4804;-82
2022/11/15 05:19:11;;;;;;;;;;;;;;;6.68;82.72;100873.41;4868399;29;4533;-79
2022/11/15 05:21:37;;;;;;;;;;;;;;;7.13;82.77;100949.16;4869310;29;4554;-80
2022/11/15 05:24:04;;;;;;;;;;;;;;;7.20;82.31;100957.25;4866285;29;4685;-79
2022/11/15 05:26:30;;;;;;;;;;;;;;;7.18;82.53;100956.63;4873313;29;4631;-79
2022/11/15 05:28:57;;;;;;;;;;;;;;;7.14;82.90;100972.22;4880788;29;4650;-82
2022/11/15 05:31:23;;;;;;;;;;;;;;;7.14;82.94;100964.19;4870891;29;4586;-80
2022/11/15 05:33:50;;;;;;;;;;;;;;;7.12;82.65;100965.38;4850533;29;4629;-82
2022/11/15 05:36:17;;;;;;;;;;;;;;;7.09;82.89;100963.09;4857318;29;5084;-81
2022/11/15 05:38:44;;;;;;;;;;;;;;;6.71;82.90;100904.31;4861112;29;4990;-81
2022/11/15 05:41:10;;;;;;;;;;;;;;;7.10;83.06;100968.28;4875651;29;4603;-81
2022/11/15 05:43:37;;;;;;;;;;;;;;;6.66;82.64;100896.00;4858805;29;4517;-82
2022/11/15 05:46:04;;;;;;;;;;;;;;;7.18;82.54;100970.03;4848874;29;4737;-81
2022/11/15 05:48:30;;;;;;;;;;;;;;;7.11;82.88;100966.41;4861069;29;4576;-82
2022/11/15 05:50:57;;;;;;;;;;;;;;;7.07;82.91;100974.00;4877787;29;4165;-82
2022/11/15 05:53:23;;;;;;;;;;;;;;;7.07;82.68;100974.00;4874566;29;4444;-82
2022/11/15 05:55:50;;;;;;;;;;;;;;;7.06;82.71;100967.00;4878012;29;4485;-81
2022/11/15 05:58:16;;;;;;;;;;;;;;;7.05;82.75;100968.00;4882084;29;4553;-80
2022/11/15 06:00:47;;;;;;;;;;;;;;;7.04;83.07;100977.88;4860602;29;4477;-81
2022/11/15 06:03:22;;;;;;;;;;;;;;;7.08;82.60;100975.66;4874593;29;4374;-80
2022/11/15 06:05:49;;;;;;;;;;;;;;;7.05;82.96;100987.56;4876966;29;4609;-79
2022/11/15 06:08:18;;;;;;;;;;;;;;;7.05;82.99;100992.91;4861628;29;4284;-80
2022/11/15 06:10:48;;;;;;;;;;;;;;;7.03;82.75;100988.78;4877007;29;4596;-80
2022/11/15 06:13:15;;;;;;;;;;;;;;;7.08;82.90;100985.53;4877404;29;4593;-79
2022/11/15 06:15:41;;;;;;;;;;;;;;;7.02;82.73;100982.56;4860254;29;4412;-80
2022/11/15 06:18:08;;;;;;;;;;;;;;;7.04;82.62;100988.59;4883499;29;4579;-79
2022/11/15 06:20:35;;;;;;;;;;;;;;;7.06;82.87;100993.78;4886133;29;4696;-80
2022/11/15 06:23:01;;;;;;;;;;;;;;;7.03;82.51;100994.16;4880643;29;4611;-79
2022/11/15 06:25:28;;;;;;;;;;;;;;;7.02;82.83;100992.47;4883624;29;4381;-80
2022/11/15 06:27:54;;;;;;;;;;;;;;;7.02;82.69;100993.28;4864439;29;4492;-82
2022/11/15 06:30:21;;;;;;;;;;;;;;;7.01;82.64;100986.28;4863229;29;4307;-82
2022/11/15 06:32:47;;;;;;;;;;;;;;;7.02;82.72;100989.78;4875836;29;4674;-82
2022/11/15 06:35:14;;;;;;;;;;;;;;;7.00;82.66;100986.47;4878675;29;4570;-81
2022/11/15 06:37:41;;;;;;;;;;;;;;;7.01;82.78;100999.69;4873937;29;4298;-81
2022/11/15 06:40:07;;;;;;;;;;;;;;;7.01;82.95;100997.00;4869286;29;4259;-81
2022/11/15 06:42:34;;;;;;;;;;;;;;;6.99;83.01;101007.06;4880903;29;4762;-82
2022/11/15 06:45:02;;;;;;;;;;;;;;;6.98;82.78;101013.44;4877052;29;4494;-80
2022/11/15 06:47:29;;;;;;;;;;;;;;;7.04;82.64;101011.88;4878179;29;4585;-82
2022/11/15 06:50:01;;;;;;;;;;;;;;;7.01;82.85;101009.56;4871684;29;4496;-82
2022/11/15 06:52:32;;;;;;;;;;;;;;;6.97;82.59;101019.81;4859603;29;4380;-81
2022/11/15 06:54:58;;;;;;;;;;;;;;;6.96;82.72;101020.00;4871033;29;4425;-81
2022/11/15 06:57:25;;;;;;;;;;;;;;;6.96;82.92;101025.34;4869306;29;4776;-80
2022/11/15 06:59:53;;;;;;;;;;;;;;;6.98;82.69;101036.72;4871934;29;4727;-81
2022/11/15 07:02:22;;;;;;;;;;;;;;;6.98;82.89;101034.03;4870539;29;4536;-80
2022/11/15 07:04:49;;;;;;;;;;;;;;;6.97;82.52;101027.84;4884476;29;4522;-79
2022/11/15 07:07:16;;;;;;;;;;;;;;;6.96;82.86;101036.88;4883204;29;4868;-79
2022/11/15 07:09:42;;;;;;;;;;;;;;;6.95;82.78;101047.78;4880816;29;4511;-80
2022/11/15 07:12:09;;;;;;;;;;;;;;;6.97;82.64;101056.47;4878018;29;4597;-80
2022/11/15 07:14:35;;;;;;;;;;;;;;;6.98;82.54;101048.25;4879065;29;4570;-79
2022/11/15 07:17:02;;;;;;;;;;;;;;;6.92;82.58;101054.34;4883325;29;4562;-80
2022/11/15 07:19:28;;;;;;;;;;;;;;;6.92;82.77;101059.69;4876863;29;4826;-79
2022/11/15 07:21:55;;;;;;;;;;;;;;;6.92;82.67;101061.56;4851123;29;4643;-80
2022/11/15 07:24:21;;;;;;;;;;;;;;;6.94;82.65;101064.84;4874540;29;4635;-80
2022/11/15 07:26:48;;;;;;;;;;;;;;;6.97;82.60;101065.34;4877048;29;4617;-81
2022/11/15 07:29:14;;;;;;;;;;;;;;;6.96;82.89;101073.56;4850401;29;4604;-82
2022/11/15 07:31:41;;;;;;;;;;;;;;;6.92;82.83;101078.44;4874952;29;4626;-80
2022/11/15 07:34:08;;;;;;;;;;;;;;;6.90;82.68;101082.31;4867500;29;4667;-82
2022/11/15 07:36:34;;;;;;;;;;;;;;;6.91;82.75;101090.19;4875993;29;4651;-82
2022/11/15 07:39:01;;;;;;;;;;;;;;;6.94;82.90;101087.13;4880789;29;5152;-80
2022/11/15 07:41:27;;;;;;;;;;;;;;;6.94;82.83;101087.13;4881724;29;4608;-80
2022/11/15 07:43:54;;;;;;;;;;;;;;;6.90;83.02;101099.22;4865837;29;4573;-81
2022/11/15 07:46:20;;;;;;;;;;;;;;;6.88;82.97;101098.56;4865175;29;4672;-80
2022/11/15 07:48:47;;;;;;;;;;;;;;;6.89;82.71;101096.72;4870999;29;4600;-80
2022/11/15 07:51:14;;;;;;;;;;;;;;;6.92;82.92;101093.69;4872569;29;4764;-80
2022/11/15 07:53:40;;;;;;;;;;;;;;;6.92;82.56;101099.03;4869491;29;4517;-80
2022/11/15 07:56:07;;;;;;;;;;;;;;;6.88;82.71;101100.41;4868756;29;4605;-81
2022/11/15 07:58:33;;;;;;;;;;;;;;;6.99;82.63;101097.28;4861395;29;4705;-80
2022/11/15 08:01:00;;;;;;;;;;;;;;;6.89;82.88;101100.25;4863040;29;4595;-80
2022/11/15 08:03:27;;;;;;;;;;;;;;;6.87;83.01;101096.91;4866757;29;4588;-80
2022/11/15 08:05:53;;;;;;;;;;;;;;;6.85;82.97;101104.28;4853708;29;4599;-79
2022/11/15 08:08:20;;;;;;;;;;;;;;;6.86;83.05;101097.91;4867014;29;5072;-82
2022/11/15 08:10:48;;;;;;;;;;;;;;;6.85;82.84;101104.28;4856386;29;4974;-81
2022/11/15 08:13:15;;;;;;;;;;;;;;;6.88;82.71;101109.25;4854156;29;4595;-79
2022/11/15 08:15:41;;;;;;;;;;;;;;;6.85;82.92;101106.13;4867859;29;4518;-80
2022/11/15 08:18:08;;;;;;;;;;;;;;;6.92;82.72;101109.75;4881018;29;4681;-80
2022/11/15 08:20:35;;;;;;;;;;;;;;;6.85;82.56;101109.63;4877081;29;4894;-80
2022/11/15 08:23:01;;;;;;;;;;;;;;;6.87;82.53;101106.78;4861088;29;4578;-80
2022/11/15 08:25:28;;;;;;;;;;;;;;;6.85;82.54;101103.44;4870177;29;5324;-81
2022/11/15 08:27:54;;;;;;;;;;;;;;;6.85;82.69;101106.94;4864586;29;4469;-81
2022/11/15 08:30:21;;;;;;;;;;;;;;;6.82;82.65;101113.53;4872077;29;4627;-80
2022/11/15 08:32:47;;;;;;;;;;;;;;;6.81;83.01;101111.00;4867164;29;5067;-80
2022/11/15 08:35:14;;;;;;;;;;;;;;;6.82;82.86;101116.22;4870408;29;4486;-80
2022/11/15 08:37:40;;;;;;;;;;;;;;;6.84;82.80;101116.00;4865929;29;4543;-81
2022/11/15 08:40:07;;;;;;;;;;;;;;;6.86;82.36;101116.66;4874964;29;4629;-80
2022/11/15 08:42:34;;;;;;;;;;;;;;;6.85;82.76;101123.00;4860810;29;4502;-81
2022/11/15 08:45:00;;;;;;;;;;;;;;;6.81;82.54;101133.25;4855322;29;4549;-80
2022/11/15 08:47:27;;;;;;;;;;;;;;;6.79;82.56;101129.94;4853825;29;4654;-80
2022/11/15 08:49:53;;;;;;;;;;;;;;;6.80;82.85;101120.91;4872560;29;4536;-79
2022/11/15 08:52:20;;;;;;;;;;;;;;;6.82;82.67;101126.91;4873388;29;4683;-81
2022/11/15 08:54:46;;;;;;;;;;;;;;;6.82;82.53;101128.72;4857414;29;4791;-80
2022/11/15 08:57:13;;;;;;;;;;;;;;;6.81;82.59;101135.94;4870986;29;4579;-81
2022/11/15 08:59:39;;;;;;;;;;;;;;;6.81;82.62;101137.78;4870121;29;4686;-81
2022/11/15 09:02:06;;;;;;;;;;;;;;;6.80;82.72;101136.97;4873069;29;4326;-80
2022/11/15 09:04:32;;;;;;;;;;;;;;;6.77;82.61;101139.19;4868972;29;4583;-80
2022/11/15 09:06:59;;;;;;;;;;;;;;;6.79;82.55;101138.00;4870847;29;4509;-80
2022/11/15 09:09:25;;;;;;;;;;;;;;;6.79;82.83;101140.66;4852848;29;4613;-80
2022/11/15 09:11:52;;;;;;;;;;;;;;;6.76;82.83;101130.28;4872992;29;4657;-79
2022/11/15 09:14:19;;;;;;;;;;;;;;;6.76;82.80;101134.81;4854581;29;5014;-80
2022/11/15 09:16:45;;;;;;;;;;;;;;;6.79;82.83;101139.81;4854694;29;4567;-81
2022/11/15 09:19:12;;;;;;;;;;;;;;;6.79;82.87;101143.34;4856005;29;4603;-80
2022/11/15 09:21:38;;;;;;;;;;;;;;;6.77;82.46;101142.69;4855278;29;4534;-80
2022/11/15 09:24:05;;;;;;;;;;;;;;;6.75;82.61;101147.38;4856931;29;4584;-79
2022/11/15 09:26:31;;;;;;;;;;;;;;;6.81;82.65;101143.97;4868800;29;4546;-80
2022/11/15 09:28:58;;;;;;;;;;;;;;;6.78;82.93;101152.38;4872600;29;4582;-80
2022/11/15 09:31:25;;;;;;;;;;;;;;;6.76;82.59;101153.56;4860537;29;4933;-80
2022/11/15 09:33:52;;;;;;;;;;;;;;;6.75;82.91;101147.38;4870544;29;4608;-81
2022/11/15 09:36:18;;;;;;;;;;;;;;;6.74;82.93;101145.72;4871935;29;4557;-81
2022/11/15 09:38:45;;;;;;;;;;;;;;;6.78;82.67;101156.91;4869109;29;4527;-81
2022/11/15 09:41:11;;;;;;;;;;;;;;;6.75;82.63;101154.56;4871011;29;4509;-81
2022/11/15 09:43:38;;;;;;;;;;;;;;;6.73;82.88;101159.28;4869554;29;4660;-80
2022/11/15 09:46:06;;;;;;;;;;;;;;;6.72;82.75;101153.09;4871874;29;4586;-80
2022/11/15 09:48:33;;;;;;;;;;;;;;;6.76;82.72;101148.19;4851032;29;4843;-80
2022/11/15 09:50:59;;;;;;;;;;;;;;;6.75;82.70;101160.75;4873917;29;4615;-81
2022/11/15 09:53:26;;;;;;;;;;;;;;;6.75;82.71;101157.25;4869111;29;4614;-81
2022/11/15 09:55:53;;;;;;;;;;;;;;;6.76;82.51;101158.91;4855312;29;4720;-81
2022/11/15 09:58:19;;;;;;;;;;;;;;;6.79;82.23;101148.69;4878303;29;4663;-80
2022/11/15 10:00:48;;;;;;;;;;;;;;;6.75;82.73;101165.28;4870270;29;4504;-80
2022/11/15 10:03:15;;;;;;;;;;;;;;;6.72;82.70;101163.78;4862195;29;4320;-80
2022/11/15 10:05:41;;;;;;;;;;;;;;;6.77;82.37;101161.41;4858077;29;3687;-81
2022/11/15 10:08:08;;;;;;;;;;;;;;;6.79;82.03;101167.44;4874080;29;4245;-80
2022/11/15 10:10:34;;;;;;;;;;;;;;;6.85;82.22;101170.38;4855248;29;5003;-80
2022/11/15 10:13:01;;;;;;;;;;;;;;;6.75;82.52;101163.44;4873649;29;4618;-80
2022/11/15 10:15:27;;;;;;;;;;;;;;;6.72;82.73;101171.00;4857674;29;4457;-78
2022/11/15 10:17:54;;;;;;;;;;;;;;;6.75;82.61;101162.59;4854435;29;5032;-80
2022/11/15 10:20:21;;;;;;;;;;;;;;;6.72;82.39;101177.19;4847203;29;4654;-78
2022/11/15 10:22:48;;;;;;;;;;;;;;;6.73;82.20;101176.16;4864854;29;4548;-80
2022/11/15 10:25:14;;;;;;;;;;;;;;;6.71;82.77;101174.69;4869445;29;4655;-80
2022/11/15 10:27:41;;;;;;;;;;;;;;;6.74;82.45;101180.53;4886113;29;4711;-80
2022/11/15 10:30:07;;;;;;;;;;;;;;;6.73;82.35;101183.38;4874939;29;4880;-78
2022/11/15 10:32:34;;;;;;;;;;;;;;;6.71;82.44;101180.88;4868791;29;4629;-78
2022/11/15 10:35:00;;;;;;;;;;;;;;;6.74;82.21;101182.38;4861716;29;4853;-81
2022/11/15 10:37:27;;;;;;;;;;;;;;;6.74;82.38;101185.88;4863177;29;4934;-81
2022/11/15 10:39:53;;;;;;;;;;;;;;;6.70;82.64;101189.91;4870752;29;4994;-79
2022/11/15 10:42:20;;;;;;;;;;;;;;;6.69;82.68;101193.59;4854946;29;4793;-81
2022/11/15 10:44:46;;;;;;;;;;;;;;;6.69;82.48;101193.59;4853077;29;4691;-80
2022/11/15 10:47:13;;;;;;;;;;;;;;;6.71;82.49;101201.47;4858878;29;4659;-80
2022/11/15 10:49:39;;;;;;;;;;;;;;;6.68;82.46;101208.00;4850890;29;4661;-81
2022/11/15 10:52:06;;;;;;;;;;;;;;;6.66;82.50;101210.03;4866014;29;4814;-80
2022/11/15 10:54:32;;;;;;;;;;;;;;;6.71;82.26;101207.66;4878010;29;4652;-80
2022/11/15 10:56:59;;;;;;;;;;;;;;;6.72;82.54;101209.31;4863470;29;4758;-79
2022/11/15 10:59:26;;;;;;;;;;;;;;;6.67;82.63;101194.78;4864464;29;4651;-81
2022/11/15 11:01:52;;;;;;;;;;;;;;;6.68;82.38;101199.97;4869210;29;4687;-79
2022/11/15 11:04:19;;;;;;;;;;;;;;;6.68;82.60;101199.97;4866219;29;4854;-80
2022/11/15 11:06:45;;;;;;;;;;;;;;;6.70;82.50;101197.94;4867444;29;5270;-81
2022/11/15 11:09:12;;;;;;;;;;;;;;;6.69;82.18;101190.09;4861766;29;4729;-81
2022/11/15 11:11:38;;;;;;;;;;;;;;;6.73;82.12;101186.88;4880069;29;4230;-80
2022/11/15 11:14:05;;;;;;;;;;;;;;;6.71;82.30;101198.78;4869214;29;4647;-82
2022/11/15 11:16:32;;;;;;;;;;;;;;;6.68;82.20;101191.13;4881988;29;4636;-80
2022/11/15 11:18:58;;;;;;;;;;;;;;;6.72;82.35;101185.22;4880546;29;4566;-80
2022/11/15 11:21:25;;;;;;;;;;;;;;;6.71;82.43;101186.25;4873734;29;4401;-80
2022/11/15 11:23:51;;;;;;;;;;;;;;;6.71;82.20;101186.25;4881041;29;4478;-80
2022/11/15 11:26:18;;;;;;;;;;;;;;;6.69;82.28;101182.06;4867287;29;4599;-80
2022/11/15 11:28:45;;;;;;;;;;;;;;;6.67;82.43;101181.41;4880669;29;4505;-80
2022/11/15 11:31:11;;;;;;;;;;;;;;;6.68;82.11;101189.28;4880462;29;4747;-80
2022/11/15 11:33:38;;;;;;;;;;;;;;;6.68;82.23;101186.59;4865289;29;4431;-80
2022/11/15 11:36:04;;;;;;;;;;;;;;;6.71;82.14;101191.59;4870802;29;4610;-80
2022/11/15 11:38:31;;;;;;;;;;;;;;;6.66;82.60;101193.13;4880246;29;4451;-80
2022/11/15 11:40:57;;;;;;;;;;;;;;;6.67;82.59;101200.16;4882650;29;4581;-80
2022/11/15 11:43:24;;;;;;;;;;;;;;;6.65;82.50;101200.34;4866950;29;4339;-81
2022/11/15 11:45:50;;;;;;;;;;;;;;;6.63;82.65;101205.03;4879048;29;4652;-80
2022/11/15 11:48:17;;;;;;;;;;;;;;;6.71;82.26;101199.63;4886391;29;4899;-80
2022/11/15 11:50:44;;;;;;;;;;;;;;;6.67;82.55;101200.97;4882844;29;4621;-80
2022/11/15 11:53:11;;;;;;;;;;;;;;;6.66;82.32;101201.16;4871613;29;4332;-79
2022/11/15 11:55:38;;;;;;;;;;;;;;;6.68;82.03;101197.31;4879909;29;4376;-81
2022/11/15 11:58:05;;;;;;;;;;;;;;;6.66;82.41;101201.16;4884882;29;4597;-81
2022/11/15 12:00:33;;;;;;;;;;;;;;;6.65;82.30;101199.47;4879601;29;4418;-80
2022/11/15 12:02:59;;;;;;;;;;;;;;;6.62;82.36;101206.06;4885801;29;4602;-81
2022/11/15 12:05:27;;;;;;;;;;;;;;;6.64;82.54;101195.97;4879832;29;4737;-80
2022/11/15 12:07:53;;;;;;;;;;;;;;;6.64;82.53;101203.19;4869533;29;4428;-81
2022/11/15 12:10:20;;;;;;;;;;;;;;;6.63;82.52;101202.34;4865188;29;4525;-81
2022/11/15 12:12:47;;;;;;;;;;;;;;;6.63;82.52;101202.34;4882466;29;4467;-81
2022/11/15 12:15:13;;;;;;;;;;;;;;;6.65;82.44;101194.13;4880170;29;4453;-81
2022/11/15 12:17:40;;;;;;;;;;;;;;;6.65;82.14;101192.31;4884444;29;4570;-81
2022/11/15 12:20:09;;;;;;;;;;;;;;;6.64;82.40;101205.84;4882141;29;4523;-80
2022/11/15 12:22:35;;;;;;;;;;;;;;;6.67;81.91;101190.25;4864291;29;4476;-80
2022/11/15 12:25:02;;;;;;;;;;;;;;;6.65;82.40;101180.75;4885022;29;4421;-81
2022/11/15 12:27:28;;;;;;;;;;;;;;;6.63;82.28;101178.25;4870551;29;4428;-83
2022/11/15 12:29:55;;;;;;;;;;;;;;;6.63;82.37;101183.63;4869726;29;4489;-80
2022/11/15 12:32:21;;;;;;;;;;;;;;;6.64;82.40;101179.09;4882424;29;4377;-80
2022/11/15 12:34:48;;;;;;;;;;;;;;;6.62;82.30;101181.97;4882200;29;4503;-81
2022/11/15 12:37:14;;;;;;;;;;;;;;;6.63;82.26;101188.97;4888091;29;4519;-81
2022/11/15 12:39:41;;;;;;;;;;;;;;;6.65;82.01;101186.09;4888494;29;4084;-80
2022/11/15 12:42:07;;;;;;;;;;;;;;;6.62;82.33;101199.84;4865521;29;4486;-81
2022/11/15 12:44:34;;;;;;;;;;;;;;;6.62;82.51;101197.16;4860784;29;4542;-81
2022/11/15 12:47:01;;;;;;;;;;;;;;;6.59;82.44;101204.56;4860121;29;4401;-81
2022/11/15 12:49:27;;;;;;;;;;;;;;;6.58;82.30;101212.75;4866896;29;4466;-81
2022/11/15 12:51:54;;;;;;;;;;;;;;;6.57;82.33;101214.59;4863307;29;4456;-81
2022/11/15 12:54:20;;;;;;;;;;;;;;;6.62;82.41;101210.53;4867671;29;4350;-81
2022/11/15 12:56:47;;;;;;;;;;;;;;;6.68;82.30;101207.19;4869057;29;4457;-82
2022/11/15 12:59:13;;;;;;;;;;;;;;;6.61;82.33;101209.72;4865839;29;4452;-80
2022/11/15 13:01:40;;;;;;;;;;;;;;;6.60;82.39;101206.22;4887317;29;4683;-81